Time;durP1;ratioP1;P1;durP2;ratioP2;P2;SDS_P1;SDS_P2;PMS_P1;PMS_P2;Temp;Humidity;BMP_temperature;BMP_pressure;BME280_temperature;BME280_humidity;BME280_pressure;Samples;Min_cycle;Max_cycle;Signal;HPM_P1;HPM_P2
2023/06/07 00:00:59;;;;;;;18.45;6.75;;;11.80;83.80;;;;;;5097544;28;20031;-80
2023/06/07 00:03:26;;;;;;;13.20;5.88;;;11.80;83.80;;;;;;5113995;28;20039;-79
2023/06/07 00:05:52;;;;;;;10.93;6.00;;;11.80;83.80;;;;;;5113805;28;20047;-80
2023/06/07 00:08:18;;;;;;;22.90;6.63;;;11.80;83.70;;;;;;5080108;28;20045;-80
2023/06/07 00:10:44;;;;;;;13.30;4.57;;;11.90;83.70;;;;;;5080153;28;20110;-81
2023/06/07 00:13:09;;;;;;;12.23;4.95;;;11.90;83.60;;;;;;5097085;28;20036;-80
2023/06/07 00:15:35;;;;;;;13.00;5.10;;;12.00;83.40;;;;;;5097120;28;20055;-81
2023/06/07 00:18:01;;;;;;;10.15;5.60;;;12.00;83.40;;;;;;5097355;28;20184;-80
2023/06/07 00:20:28;;;;;;;15.43;5.45;;;11.90;83.50;;;;;;5114333;28;20118;-79
2023/06/07 00:22:58;;;;;;;12.30;5.88;;;11.90;83.50;;;;;;5096806;28;20044;-80
2023/06/07 00:25:24;;;;;;;10.35;5.60;;;12.00;83.40;;;;;;5097054;28;20035;-80
2023/06/07 00:27:49;;;;;;;10.45;4.85;;;12.00;83.40;;;;;;5096537;28;20040;-80
2023/06/07 00:30:17;;;;;;;19.30;5.00;;;11.90;83.50;;;;;;5065102;28;20032;-80
2023/06/07 00:32:44;;;;;;;9.02;4.60;;;11.90;83.60;;;;;;5100256;28;20043;-80
2023/06/07 00:35:12;;;;;;;12.95;5.90;;;11.90;83.70;;;;;;5115757;28;20458;-80
2023/06/07 00:37:38;;;;;;;15.35;5.28;;;11.90;83.60;;;;;;5112988;28;20036;-79
2023/06/07 00:40:05;;;;;;;17.13;5.60;;;11.90;83.70;;;;;;5098600;28;20036;-80
2023/06/07 00:42:32;;;;;;;17.00;5.47;;;11.90;83.70;;;;;;5114770;28;20054;-80
2023/06/07 00:44:58;;;;;;;12.20;5.60;;;11.90;83.80;;;;;;5080669;28;20110;-79
2023/06/07 00:47:25;;;;;;;13.23;5.03;;;11.90;83.90;;;;;;5099453;28;20081;-80
2023/06/07 00:49:51;;;;;;;14.75;5.53;;;11.90;83.90;;;;;;5099374;28;20051;-80
2023/06/07 00:52:17;;;;;;;10.32;4.68;;;11.90;84.30;;;;;;5081718;28;20404;-79
2023/06/07 00:54:44;;;;;;;12.75;5.35;;;11.80;84.00;;;;;;5080688;28;20550;-80
2023/06/07 00:57:10;;;;;;;14.07;5.07;;;11.90;84.10;;;;;;5098188;28;20047;-80
2023/06/07 00:59:37;;;;;;;12.20;5.82;;;11.90;84.20;;;;;;5098183;28;20040;-80
2023/06/07 01:02:04;;;;;;;14.48;5.72;;;11.90;84.20;;;;;;5097364;28;20036;-80
2023/06/07 01:04:30;;;;;;;15.32;5.05;;;11.90;84.20;;;;;;5081424;28;20039;-79
2023/06/07 01:06:57;;;;;;;14.20;5.10;;;11.90;84.00;;;;;;5080263;28;20050;-80
2023/06/07 01:09:24;;;;;;;13.48;4.72;;;12.00;84.00;;;;;;5097618;28;20092;-78
2023/06/07 01:11:53;;;;;;;14.35;5.00;;;12.00;84.00;;;;;;5063556;28;20040;-79
2023/06/07 01:14:20;;;;;;;14.00;5.30;;;12.00;84.00;;;;;;5083099;28;20385;-80
2023/06/07 01:16:50;;;;;;;17.00;5.85;;;12.00;84.00;;;;;;5101300;28;20046;-80
2023/06/07 01:19:25;;;;;;;14.35;5.88;;;12.00;84.00;;;;;;5101027;28;20031;-80
2023/06/07 01:22:02;;;;;;;12.70;4.85;;;12.00;83.90;;;;;;5118554;28;20044;-80
2023/06/07 01:24:29;;;;;;;11.55;4.32;;;12.00;84.00;;;;;;5118597;28;20044;-80
2023/06/07 01:26:57;;;;;;;15.18;5.30;;;12.00;84.00;;;;;;5084850;28;20126;-80
2023/06/07 01:29:25;;;;;;;16.92;5.88;;;12.00;84.00;;;;;;5100639;28;20043;-79
2023/06/07 01:31:53;;;;;;;14.95;4.97;;;12.00;83.80;;;;;;5100945;28;20054;-80
2023/06/07 01:34:20;;;;;;;12.70;5.53;;;12.00;83.90;;;;;;5100884;28;20185;-80
2023/06/07 01:36:50;;;;;;;15.52;6.25;;;12.10;83.90;;;;;;5083772;28;20039;-79
2023/06/07 01:39:18;;;;;;;10.07;4.80;;;12.10;83.80;;;;;;5117418;28;20425;-79
2023/06/07 01:41:45;;;;;;;11.18;4.63;;;12.10;84.10;;;;;;5099892;28;20483;-80
2023/06/07 01:44:13;;;;;;;13.68;5.10;;;12.00;83.80;;;;;;5083010;28;20039;-80
2023/06/07 01:46:41;;;;;;;13.60;4.80;;;12.00;84.00;;;;;;5100019;28;20096;-80
2023/06/07 01:49:06;;;;;;;10.48;4.10;;;12.10;83.80;;;;;;5117467;28;20554;-80
2023/06/07 01:51:32;;;;;;;14.02;4.53;;;12.10;83.80;;;;;;5100109;28;20148;-80
2023/06/07 01:53:59;;;;;;;14.15;5.38;;;12.10;83.70;;;;;;5100506;28;20131;-80
2023/06/07 01:56:59;;;;;;;18.45;5.63;;;12.10;83.50;;;;;;5100220;28;20040;-81
2023/06/07 01:59:49;;;;;;;12.05;4.93;;;12.00;83.60;;;;;;5117022;28;20543;-80
2023/06/07 02:02:32;;;;;;;19.52;5.75;;;12.00;83.80;;;;;;5107728;28;20023;-81
2023/06/07 02:05:03;;;;;;;14.18;4.25;;;12.10;83.80;;;;;;5125471;28;20091;-81
2023/06/07 02:07:35;;;;;;;12.95;4.75;;;12.10;83.70;;;;;;5142451;28;20043;-79
2023/06/07 02:10:03;;;;;;;16.08;5.10;;;12.10;83.60;;;;;;5125359;28;20042;-80
2023/06/07 02:12:32;;;;;;;14.63;4.65;;;12.10;83.60;;;;;;5124835;28;20045;-78
2023/06/07 02:15:00;;;;;;;14.20;5.88;;;12.00;83.70;;;;;;5121025;28;20050;-80
2023/06/07 02:17:25;;;;;;;15.07;4.85;;;12.10;83.80;;;;;;5137898;28;20015;-80
2023/06/07 02:19:51;;;;;;;13.25;5.05;;;12.10;83.90;;;;;;5120694;28;20039;-80
2023/06/07 02:22:17;;;;;;;19.08;5.05;;;12.10;84.00;;;;;;5103826;28;20039;-80
2023/06/07 02:24:42;;;;;;;13.15;4.82;;;12.10;84.00;;;;;;5083119;28;20130;-80
2023/06/07 02:27:08;;;;;;;14.93;4.60;;;12.00;84.00;;;;;;5097856;28;20039;-80
2023/06/07 02:29:35;;;;;;;9.73;4.63;;;12.10;84.10;;;;;;5098544;28;20043;-81
2023/06/07 02:32:01;;;;;;;17.83;5.65;;;12.10;84.10;;;;;;5098851;28;20074;-79
2023/06/07 02:34:29;;;;;;;16.70;5.28;;;12.10;84.20;;;;;;5115090;28;20185;-80
2023/06/07 02:36:54;;;;;;;11.43;4.72;;;12.20;84.30;;;;;;5097948;28;20422;-80
2023/06/07 02:39:21;;;;;;;16.13;4.60;;;12.10;84.10;;;;;;5098335;28;20039;-81
2023/06/07 02:41:46;;;;;;;15.10;4.75;;;12.10;84.00;;;;;;5098041;28;20075;-80
2023/06/07 02:44:12;;;;;;;11.80;3.97;;;12.10;84.00;;;;;;5080941;28;20532;-81
2023/06/07 02:46:38;;;;;;;13.65;4.00;;;12.10;83.90;;;;;;5064072;28;20050;-80
2023/06/07 02:49:03;;;;;;;9.65;4.38;;;12.20;84.00;;;;;;5114963;28;20127;-81
2023/06/07 02:51:29;;;;;;;12.45;4.43;;;12.20;83.90;;;;;;5097519;28;20407;-81
2023/06/07 02:53:56;;;;;;;13.65;3.85;;;12.20;83.80;;;;;;5064177;28;20044;-81
2023/06/07 02:56:23;;;;;;;11.23;3.70;;;12.20;83.80;;;;;;5098296;28;20036;-81
2023/06/07 02:58:49;;;;;;;14.50;3.85;;;12.20;83.90;;;;;;5080883;28;20031;-81
2023/06/07 03:01:16;;;;;;;12.45;4.15;;;12.20;83.80;;;;;;5097579;28;20097;-80
2023/06/07 03:03:42;;;;;;;9.93;4.25;;;12.20;83.70;;;;;;5081252;28;20521;-80
2023/06/07 03:06:09;;;;;;;15.32;5.18;;;12.20;83.70;;;;;;5097184;28;20045;-80
2023/06/07 03:08:35;;;;;;;11.45;4.22;;;12.20;83.70;;;;;;5096956;28;20054;-79
2023/06/07 03:11:01;;;;;;;13.30;4.75;;;12.20;83.80;;;;;;5080141;28;20040;-80
2023/06/07 03:13:26;;;;;;;8.68;4.00;;;12.20;83.90;;;;;;5096593;28;20058;-81
2023/06/07 03:15:52;;;;;;;12.43;4.55;;;12.30;83.90;;;;;;5096695;28;20407;-81
2023/06/07 03:18:18;;;;;;;13.27;4.47;;;12.20;83.90;;;;;;5096771;28;20075;-80
2023/06/07 03:20:44;;;;;;;8.88;3.50;;;12.30;83.80;;;;;;5079792;28;20484;-80
2023/06/07 03:23:10;;;;;;;15.75;4.40;;;12.30;83.70;;;;;;5097004;28;20044;-80
2023/06/07 03:25:36;;;;;;;13.27;4.90;;;12.30;83.60;;;;;;5080672;28;20036;-80
2023/06/07 03:28:02;;;;;;;14.43;5.13;;;12.30;83.60;;;;;;5097143;28;20047;-80
2023/06/07 03:30:28;;;;;;;10.95;4.43;;;12.30;83.50;;;;;;5097100;28;20046;-80
2023/06/07 03:32:54;;;;;;;15.20;4.93;;;12.30;83.40;;;;;;5097230;28;20039;-80
2023/06/07 03:35:20;;;;;;;14.38;5.35;;;12.30;83.40;;;;;;5080480;28;20137;-81
2023/06/07 03:37:46;;;;;;;14.00;5.00;;;12.30;83.40;;;;;;5096781;28;20476;-81
2023/06/07 03:40:12;;;;;;;9.70;5.13;;;12.30;83.30;;;;;;5097138;28;20036;-80
2023/06/07 03:42:39;;;;;;;18.13;5.75;;;12.30;83.50;;;;;;5063839;28;20067;-81
2023/06/07 03:45:05;;;;;;;13.68;5.18;;;12.30;83.60;;;;;;5080285;28;20404;-80
2023/06/07 03:47:32;;;;;;;15.50;4.85;;;12.30;83.60;;;;;;5080215;28;20044;-80
2023/06/07 03:49:58;;;;;;;10.93;4.00;;;12.30;83.60;;;;;;5096888;28;20126;-80
2023/06/07 03:52:23;;;;;;;10.98;4.22;;;12.30;83.70;;;;;;5063675;28;20101;-81
2023/06/07 03:54:50;;;;;;;10.35;3.58;;;12.30;83.40;;;;;;5097702;28;20089;-80
2023/06/07 03:57:15;;;;;;;12.77;3.90;;;12.30;83.60;;;;;;5097343;28;20130;-82
2023/06/07 03:59:41;;;;;;;9.48;4.07;;;12.30;83.50;;;;;;5097257;28;20063;-81
2023/06/07 04:02:07;;;;;;;14.85;5.10;;;12.30;83.50;;;;;;5080732;28;20035;-80
2023/06/07 04:04:33;;;;;;;11.38;4.60;;;12.40;83.40;;;;;;5097590;28;20036;-80
2023/06/07 04:07:03;;;;;;;11.13;4.35;;;12.40;83.40;;;;;;5080800;28;20073;-78
2023/06/07 04:09:29;;;;;;;11.70;4.18;;;12.40;83.40;;;;;;5098949;28;20047;-80
2023/06/07 04:11:55;;;;;;;13.50;4.07;;;12.40;83.50;;;;;;5097725;28;20043;-80
2023/06/07 04:14:21;;;;;;;11.45;4.07;;;12.40;83.40;;;;;;5079544;28;20181;-80
2023/06/07 04:16:47;;;;;;;10.55;4.13;;;12.40;83.10;;;;;;5097068;28;20039;-80
2023/06/07 04:19:13;;;;;;;12.15;4.55;;;12.40;83.10;;;;;;5080783;28;20453;-78
2023/06/07 04:21:39;;;;;;;16.98;3.95;;;12.40;83.10;;;;;;5080170;28;20069;-81
2023/06/07 04:24:05;;;;;;;13.27;4.30;;;12.40;83.20;;;;;;5096328;28;20499;-80
2023/06/07 04:26:31;;;;;;;14.77;4.07;;;12.50;83.10;;;;;;5096187;28;20047;-80
2023/06/07 04:28:57;;;;;;;12.60;4.90;;;12.50;83.00;;;;;;5096378;28;20051;-81
2023/06/07 04:31:29;;;;;;;12.20;4.68;;;12.50;82.90;;;;;;5113442;28;20048;-81
2023/06/07 04:33:59;;;;;;;12.05;4.65;;;12.50;82.80;;;;;;5096913;28;20094;-80
2023/06/07 04:36:37;;;;;;;12.70;4.75;;;12.50;82.90;;;;;;5097942;28;20082;-80
2023/06/07 04:39:05;;;;;;;10.57;4.72;;;12.60;82.70;;;;;;5081476;28;20031;-79
2023/06/07 04:41:32;;;;;;;13.20;5.88;;;12.60;82.80;;;;;;5113322;28;20067;-80
2023/06/07 04:44:03;;;;;;;11.88;4.40;;;12.50;82.80;;;;;;5082258;28;20032;-81
2023/06/07 04:46:30;;;;;;;10.90;4.10;;;12.60;82.70;;;;;;5118014;27;20395;-82
2023/06/07 04:48:57;;;;;;;12.95;4.53;;;12.60;82.80;;;;;;5115791;28;20031;-78
2023/06/07 04:51:25;;;;;;;11.32;4.53;;;12.60;82.50;;;;;;5117364;28;20054;-79
2023/06/07 04:53:58;;;;;;;8.07;3.60;;;12.70;82.00;;;;;;5116621;28;20380;-79
2023/06/07 04:56:25;;;;;;;8.45;4.00;;;12.60;82.00;;;;;;5133730;28;20531;-78
2023/06/07 04:58:52;;;;;;;9.50;4.47;;;12.70;81.90;;;;;;5104141;28;20036;-77
2023/06/07 05:01:18;;;;;;;8.07;3.60;;;12.70;81.80;;;;;;5111498;28;20123;-77
2023/06/07 05:03:43;;;;;;;10.07;4.30;;;12.70;81.80;;;;;;5102493;28;20106;-78
2023/06/07 05:06:09;;;;;;;8.43;4.22;;;12.70;81.80;;;;;;5092165;28;20114;-79
2023/06/07 05:08:35;;;;;;;7.78;3.42;;;12.70;81.70;;;;;;5112134;28;20035;-79
2023/06/07 05:11:01;;;;;;;11.75;3.80;;;12.70;81.80;;;;;;5130376;28;20150;-77
2023/06/07 05:13:27;;;;;;;13.18;4.70;;;12.80;81.90;;;;;;5105785;28;20483;-78
2023/06/07 05:15:53;;;;;;;11.00;4.03;;;12.80;82.00;;;;;;5104857;28;20092;-78
2023/06/07 05:18:19;;;;;;;10.15;3.40;;;12.80;82.10;;;;;;5114704;28;20032;-78
2023/06/07 05:20:46;;;;;;;20.77;5.50;;;12.90;82.10;;;;;;5112565;28;20491;-77
2023/06/07 05:23:16;;;;;;;13.02;3.80;;;12.90;81.80;;;;;;5095318;28;20118;-77
2023/06/07 05:25:44;;;;;;;9.95;4.50;;;13.00;81.80;;;;;;5112638;28;20039;-78
2023/06/07 05:28:09;;;;;;;12.13;4.00;;;13.00;81.40;;;;;;5095485;28;20086;-79
2023/06/07 05:30:39;;;;;;;12.18;3.65;;;13.00;81.30;;;;;;5113082;28;20075;-77
2023/06/07 05:33:06;;;;;;;10.60;4.05;;;13.00;81.00;;;;;;5095535;28;20122;-77
2023/06/07 05:35:32;;;;;;;10.85;3.70;;;13.00;80.90;;;;;;5112404;28;20100;-79
2023/06/07 05:37:58;;;;;;;9.73;3.53;;;13.00;80.90;;;;;;5112338;28;20032;-78
2023/06/07 05:40:23;;;;;;;8.63;3.22;;;13.00;81.20;;;;;;5112678;28;20138;-78
2023/06/07 05:42:50;;;;;;;10.35;3.80;;;13.10;81.00;;;;;;5078699;28;20499;-78
2023/06/07 05:45:16;;;;;;;15.20;4.20;;;13.10;80.90;;;;;;5078362;28;20039;-77
2023/06/07 05:47:46;;;;;;;11.38;4.03;;;13.10;80.90;;;;;;5112606;28;20078;-79
2023/06/07 05:50:12;;;;;;;12.88;4.07;;;13.20;81.10;;;;;;5095283;28;20043;-80
2023/06/07 05:52:40;;;;;;;10.88;4.05;;;13.20;81.10;;;;;;5079085;28;20039;-79
2023/06/07 05:55:07;;;;;;;8.35;4.55;;;13.30;81.10;;;;;;5095713;28;20039;-79
2023/06/07 05:57:33;;;;;;;10.40;3.80;;;13.30;81.10;;;;;;5112669;28;20506;-79
2023/06/07 05:59:59;;;;;;;9.75;3.58;;;13.40;81.20;;;;;;5097427;28;20048;-79
2023/06/07 06:02:28;;;;;;;12.27;3.65;;;13.40;80.90;;;;;;5115809;28;20526;-79
2023/06/07 06:04:55;;;;;;;8.98;4.38;;;13.50;80.80;;;;;;5082485;28;20039;-80
2023/06/07 06:07:21;;;;;;;8.48;3.83;;;13.50;80.60;;;;;;5099734;28;20043;-79
2023/06/07 06:09:46;;;;;;;9.93;3.70;;;13.50;79.60;;;;;;5065573;28;20547;-79
2023/06/07 06:12:12;;;;;;;8.55;3.40;;;13.60;79.40;;;;;;5099282;28;20036;-79
2023/06/07 06:14:38;;;;;;;13.68;4.13;;;13.60;79.40;;;;;;5115699;28;20052;-79
2023/06/07 06:17:05;;;;;;;12.43;4.07;;;13.60;79.40;;;;;;5098985;28;20035;-80
2023/06/07 06:19:31;;;;;;;13.68;3.83;;;13.70;79.10;;;;;;5099215;28;20104;-79
2023/06/07 06:21:57;;;;;;;12.98;3.70;;;13.60;78.90;;;;;;5098875;28;20035;-79
2023/06/07 06:24:22;;;;;;;8.00;3.70;;;13.60;78.90;;;;;;5115704;28;20465;-79
2023/06/07 06:26:48;;;;;;;10.35;3.88;;;13.60;78.90;;;;;;5115591;28;20134;-80
2023/06/07 06:29:14;;;;;;;10.90;3.88;;;13.60;78.90;;;;;;5098375;28;20480;-81
2023/06/07 06:31:43;;;;;;;9.68;3.60;;;13.70;79.20;;;;;;5098187;28;20032;-80
2023/06/07 06:34:08;;;;;;;13.45;4.38;;;13.70;79.30;;;;;;5115217;28;20404;-80
2023/06/07 06:36:34;;;;;;;7.68;3.70;;;13.80;79.20;;;;;;5064689;28;20028;-80
2023/06/07 06:39:00;;;;;;;14.90;4.43;;;13.90;79.20;;;;;;5082084;28;20207;-80
2023/06/07 06:41:26;;;;;;;10.32;4.57;;;14.00;79.20;;;;;;5081618;28;20047;-80
2023/06/07 06:43:51;;;;;;;13.20;4.93;;;14.00;79.00;;;;;;5098116;28;20046;-80
2023/06/07 06:46:17;;;;;;;9.00;3.67;;;14.00;78.90;;;;;;5097885;28;20035;-78
2023/06/07 06:48:43;;;;;;;13.32;3.88;;;14.00;79.20;;;;;;5097939;28;20101;-79
2023/06/07 06:51:08;;;;;;;11.75;4.57;;;14.10;79.20;;;;;;5114878;28;20043;-80
2023/06/07 06:53:34;;;;;;;11.75;4.50;;;14.20;79.00;;;;;;5081200;28;20043;-81
2023/06/07 06:56:01;;;;;;;12.85;4.50;;;14.30;78.90;;;;;;5065023;28;20416;-80
2023/06/07 06:58:27;;;;;;;9.43;3.55;;;14.30;79.00;;;;;;5115596;28;20043;-80
2023/06/07 07:00:52;;;;;;;9.10;4.05;;;14.50;78.70;;;;;;5115680;28;20506;-80
2023/06/07 07:03:18;;;;;;;12.60;4.00;;;14.50;78.20;;;;;;5098162;28;20039;-81
2023/06/07 07:05:44;;;;;;;9.57;3.72;;;14.50;77.90;;;;;;5114820;28;20492;-80
2023/06/07 07:08:09;;;;;;;10.55;6.20;;;14.60;77.80;;;;;;5097863;28;20054;-80
2023/06/07 07:10:35;;;;;;;12.40;4.20;;;14.70;77.20;;;;;;5114669;28;20122;-80
2023/06/07 07:13:01;;;;;;;9.95;3.90;;;14.80;76.80;;;;;;5096681;28;20396;-81
2023/06/07 07:15:27;;;;;;;13.23;4.10;;;14.80;76.50;;;;;;5107918;27;20458;-80
2023/06/07 07:17:53;;;;;;;8.23;3.70;;;14.90;76.40;;;;;;5101327;27;20043;-80
2023/06/07 07:20:19;;;;;;;8.07;3.80;;;15.00;76.40;;;;;;5135057;27;20497;-81
2023/06/07 07:22:46;;;;;;;9.13;4.15;;;15.00;76.20;;;;;;5118169;27;20129;-80
2023/06/07 07:25:12;;;;;;;9.02;4.28;;;15.00;75.70;;;;;;5101505;27;20081;-80
2023/06/07 07:27:38;;;;;;;8.07;3.90;;;15.10;75.40;;;;;;5135527;27;20061;-80
2023/06/07 07:30:05;;;;;;;12.30;4.05;;;15.20;75.60;;;;;;5117713;27;20542;-80
2023/06/07 07:32:32;;;;;;;13.88;3.88;;;15.30;75.70;;;;;;5117718;27;20440;-81
2023/06/07 07:34:58;;;;;;;14.20;4.20;;;15.50;75.60;;;;;;5117547;27;20039;-80
2023/06/07 07:37:30;;;;;;;10.82;4.40;;;15.50;74.90;;;;;;5117878;27;20034;-81
2023/06/07 07:39:56;;;;;;;11.75;4.50;;;15.50;74.40;;;;;;5117120;27;20038;-78
2023/06/07 07:42:22;;;;;;;12.05;4.40;;;15.50;74.50;;;;;;5117474;27;20049;-78
2023/06/07 07:44:47;;;;;;;13.38;4.70;;;15.60;74.50;;;;;;5134422;27;20042;-78
2023/06/07 07:47:13;;;;;;;10.48;4.38;;;15.70;74.50;;;;;;5117205;27;20035;-78
2023/06/07 07:49:39;;;;;;;11.25;4.40;;;15.70;74.40;;;;;;5117439;27;20039;-79
2023/06/07 07:52:05;;;;;;;13.15;5.47;;;15.70;74.00;;;;;;5116905;27;20505;-78
2023/06/07 07:54:31;;;;;;;11.90;4.55;;;15.70;73.90;;;;;;5117193;27;20183;-77
2023/06/07 07:56:56;;;;;;;8.45;4.18;;;15.80;74.00;;;;;;5117002;27;20080;-79
2023/06/07 07:59:22;;;;;;;11.55;4.40;;;15.90;74.10;;;;;;5134068;27;20043;-79
2023/06/07 08:01:49;;;;;;;15.07;4.90;;;15.90;73.90;;;;;;5117000;27;20124;-78
2023/06/07 08:04:15;;;;;;;13.85;4.45;;;16.10;73.80;;;;;;5116744;27;20043;-80
2023/06/07 08:06:42;;;;;;;12.95;5.10;;;16.10;74.10;;;;;;5100306;27;20050;-78
2023/06/07 08:09:09;;;;;;;9.80;4.82;;;16.20;73.80;;;;;;5100067;27;20129;-79
2023/06/07 08:11:35;;;;;;;16.88;5.50;;;16.20;73.50;;;;;;5117227;27;20035;-79
2023/06/07 08:14:01;;;;;;;13.02;5.25;;;16.40;72.70;;;;;;5116537;27;20047;-79
2023/06/07 08:16:27;;;;;;;11.48;4.75;;;16.40;73.40;;;;;;5134283;27;20372;-80
2023/06/07 08:18:59;;;;;;;15.10;4.25;;;16.40;72.90;;;;;;5083281;27;20380;-79
2023/06/07 08:21:25;;;;;;;10.68;4.68;;;16.40;72.60;;;;;;5116934;27;20031;-79
2023/06/07 08:23:54;;;;;;;12.25;4.82;;;16.40;72.60;;;;;;5117473;27;20054;-79
2023/06/07 08:26:20;;;;;;;10.35;4.25;;;16.60;72.90;;;;;;5134288;27;20536;-78
2023/06/07 08:28:46;;;;;;;7.78;4.10;;;16.80;73.20;;;;;;5083183;27;20196;-80
2023/06/07 08:31:11;;;;;;;11.20;4.00;;;17.00;72.10;;;;;;5083021;27;20035;-80
2023/06/07 08:33:37;;;;;;;14.10;5.05;;;17.10;71.70;;;;;;5099840;27;20070;-80
2023/06/07 08:36:03;;;;;;;10.20;4.72;;;17.20;71.10;;;;;;5133813;27;20031;-80
2023/06/07 08:38:29;;;;;;;13.05;4.65;;;17.30;70.30;;;;;;5133938;27;20074;-79
2023/06/07 08:40:55;;;;;;;11.65;5.72;;;17.20;69.80;;;;;;5116796;27;20043;-81
2023/06/07 08:43:22;;;;;;;11.65;5.07;;;17.10;68.80;;;;;;5116617;27;20043;-79
2023/06/07 08:45:50;;;;;;;9.43;4.80;;;17.00;69.00;;;;;;5117672;27;20125;-80
2023/06/07 08:48:16;;;;;;;10.10;4.60;;;16.90;69.60;;;;;;5116389;27;20479;-80
2023/06/07 08:50:44;;;;;;;8.95;4.50;;;16.90;69.80;;;;;;5133425;27;20041;-81
2023/06/07 08:53:13;;;;;;;14.15;5.10;;;17.00;69.60;;;;;;5099646;28;20043;-80
2023/06/07 08:55:39;;;;;;;10.57;4.65;;;17.00;70.30;;;;;;5116426;28;20047;-80
2023/06/07 08:58:08;;;;;;;12.75;5.93;;;17.10;70.70;;;;;;5099965;28;20128;-80
2023/06/07 09:00:35;;;;;;;14.18;5.95;;;17.30;70.20;;;;;;5134133;28;20422;-81
2023/06/07 09:03:02;;;;;;;13.85;6.10;;;17.30;69.40;;;;;;5100131;28;20399;-80
2023/06/07 09:05:28;;;;;;;15.52;6.22;;;17.20;69.10;;;;;;5133959;28;20497;-81
2023/06/07 09:07:54;;;;;;;15.02;6.70;;;17.20;69.30;;;;;;5099506;28;20046;-79
2023/06/07 09:10:20;;;;;;;14.88;5.53;;;17.30;70.10;;;;;;5099385;28;20039;-78
2023/06/07 09:12:46;;;;;;;11.38;5.93;;;17.30;69.00;;;;;;5133256;28;20035;-80
2023/06/07 09:15:20;;;;;;;13.52;5.25;;;17.30;68.90;;;;;;5115589;28;20563;-82
2023/06/07 09:18:04;;;;;;;12.27;5.47;;;17.40;68.80;;;;;;5115766;28;20046;-83
2023/06/07 09:20:31;;;;;;;14.73;5.78;;;17.50;69.00;;;;;;5116448;28;20032;-81
2023/06/07 09:23:02;;;;;;;9.90;4.93;;;17.50;69.40;;;;;;5132998;28;20043;-79
2023/06/07 09:25:30;;;;;;;9.90;6.00;;;17.50;69.00;;;;;;5116151;28;20395;-83
2023/06/07 09:27:56;;;;;;;13.30;5.75;;;17.60;68.90;;;;;;5099391;28;20435;-80
2023/06/07 09:30:23;;;;;;;13.73;5.43;;;17.70;69.10;;;;;;5132924;28;20039;-80
2023/06/07 09:32:49;;;;;;;11.48;6.07;;;17.80;69.10;;;;;;5099097;28;20089;-80
2023/06/07 09:35:20;;;;;;;11.70;4.82;;;18.00;68.10;;;;;;5117738;27;20050;-81
2023/06/07 09:37:59;;;;;;;10.95;5.45;;;18.00;68.00;;;;;;5120532;27;20399;-83
2023/06/07 09:40:25;;;;;;;16.00;5.60;;;18.20;67.00;;;;;;5119680;27;20039;-82
2023/06/07 09:42:58;;;;;;;13.43;6.07;;;18.20;66.80;;;;;;5119376;27;20045;-81
2023/06/07 09:45:25;;;;;;;25.80;6.65;;;18.20;65.50;;;;;;5102939;27;20437;-81
2023/06/07 09:48:02;;;;;;;14.23;6.47;;;18.20;65.80;;;;;;5102587;27;20039;-82
2023/06/07 09:50:28;;;;;;;15.75;6.60;;;18.30;65.80;;;;;;5119523;27;20043;-80
2023/06/07 09:52:58;;;;;;;10.68;5.82;;;18.40;66.30;;;;;;5119157;27;20039;-80
2023/06/07 09:55:28;;;;;;;10.80;5.60;;;18.50;66.90;;;;;;5136258;27;20108;-80
2023/06/07 09:57:57;;;;;;;15.80;6.05;;;18.60;65.90;;;;;;5102096;27;20045;-81
2023/06/07 10:00:25;;;;;;;14.02;5.95;;;18.70;65.40;;;;;;5119272;27;20035;-81
2023/06/07 10:02:51;;;;;;;10.98;5.00;;;18.80;65.90;;;;;;5119207;27;20043;-81
2023/06/07 10:05:21;;;;;;;14.25;6.68;;;18.80;65.70;;;;;;5119101;27;20533;-80
2023/06/07 10:07:48;;;;;;;12.73;5.53;;;18.90;65.30;;;;;;5102638;27;20102;-82
2023/06/07 10:10:17;;;;;;;13.02;5.68;;;18.90;65.50;;;;;;5119328;27;20130;-80
2023/06/07 10:12:45;;;;;;;15.20;5.90;;;19.00;65.30;;;;;;5119384;27;20035;-80
2023/06/07 10:15:31;;;;;;;12.18;6.22;;;19.10;65.40;;;;;;5119091;27;20204;-82
2023/06/07 10:18:17;;;;;;;12.07;6.15;;;19.30;66.30;;;;;;5118816;27;20078;-81
2023/06/07 10:20:57;;;;;;;8.95;5.82;;;19.40;65.60;;;;;;5102569;27;20076;-81
2023/06/07 10:23:31;;;;;;;11.32;5.45;;;19.60;65.10;;;;;;5118664;27;20035;-80
2023/06/07 10:26:05;;;;;;;13.82;5.93;;;19.60;64.00;;;;;;5118776;27;20031;-80
2023/06/07 10:28:58;;;;;;;11.70;5.50;;;19.60;64.20;;;;;;5118679;27;20039;-80
2023/06/07 10:31:29;;;;;;;10.63;5.43;;;19.70;64.60;;;;;;5118397;27;20035;-76
2023/06/07 10:33:56;;;;;;;12.95;5.50;;;19.80;62.70;;;;;;5118627;27;20039;-78
2023/06/07 10:36:23;;;;;;;13.50;6.03;;;19.70;62.30;;;;;;5118251;27;20118;-81
2023/06/07 10:38:51;;;;;;;12.75;6.63;;;19.70;62.50;;;;;;5101624;27;20483;-79
2023/06/07 10:41:18;;;;;;;12.05;5.38;;;19.80;63.00;;;;;;5118241;27;20533;-79
2023/06/07 10:43:46;;;;;;;11.13;5.35;;;19.80;62.90;;;;;;5135279;27;20046;-77
2023/06/07 10:46:20;;;;;;;14.27;5.82;;;19.80;62.30;;;;;;5117573;27;20039;-82
2023/06/07 10:48:46;;;;;;;14.50;5.20;;;19.90;63.40;;;;;;5101377;27;20094;-82
2023/06/07 10:51:15;;;;;;;11.25;6.15;;;20.00;63.10;;;;;;5135271;27;20039;-82
2023/06/07 10:53:52;;;;;;;12.32;6.68;;;20.10;62.50;;;;;;5101281;27;20046;-80
2023/06/07 10:56:32;;;;;;;12.27;6.25;;;20.20;61.60;;;;;;5135530;27;20042;-80
2023/06/07 10:59:20;;;;;;;11.85;6.20;;;20.10;61.40;;;;;;5119197;27;20486;-80
2023/06/07 11:01:46;;;;;;;12.20;5.80;;;20.20;62.00;;;;;;5118739;27;20046;-82
2023/06/07 11:04:39;;;;;;;12.23;5.93;;;20.40;62.60;;;;;;5101515;27;20039;-82
2023/06/07 11:07:22;;;;;;;20.73;6.90;;;20.60;62.20;;;;;;5122354;27;20494;-83
2023/06/07 11:10:03;;;;;;;17.48;5.63;;;20.70;61.90;;;;;;5118082;27;20043;-82
2023/06/07 11:12:35;;;;;;;11.52;6.18;;;20.80;61.30;;;;;;5134915;27;20623;-83
2023/06/07 11:15:24;;;;;;;13.98;7.03;;;20.90;61.00;;;;;;5117657;27;20047;-81
2023/06/07 11:17:58;;;;;;;12.07;6.30;;;20.90;60.20;;;;;;5118124;27;20043;-81
2023/06/07 11:20:36;;;;;;;11.32;6.05;;;21.10;60.80;;;;;;5118021;27;20074;-81
2023/06/07 11:23:24;;;;;;;9.55;5.50;;;21.20;60.70;;;;;;5117892;27;20035;-79
2023/06/07 11:26:06;;;;;;;14.35;6.57;;;21.50;60.70;;;;;;5117758;27;20125;-80
2023/06/07 11:28:34;;;;;;;10.55;6.20;;;21.60;60.50;;;;;;5135022;27;20046;-80
2023/06/07 11:31:01;;;;;;;13.27;6.35;;;21.70;59.70;;;;;;5117555;27;20054;-80
2023/06/07 11:33:27;;;;;;;11.40;7.10;;;21.80;59.70;;;;;;5117731;27;20057;-80
2023/06/07 11:35:55;;;;;;;11.70;6.05;;;21.90;59.10;;;;;;5135239;27;20032;-81
2023/06/07 11:38:21;;;;;;;11.15;5.43;;;21.90;57.00;;;;;;5101185;27;20071;-81
2023/06/07 11:40:48;;;;;;;8.05;5.75;;;21.90;57.70;;;;;;5117499;27;20071;-81
2023/06/07 11:43:19;;;;;;;11.85;6.18;;;22.00;57.70;;;;;;5100261;27;20047;-79
2023/06/07 11:45:45;;;;;;;9.35;5.82;;;21.90;57.80;;;;;;5134520;27;20035;-81
2023/06/07 11:48:11;;;;;;;13.23;7.15;;;22.00;58.40;;;;;;5117345;27;20061;-80
2023/06/07 11:50:38;;;;;;;12.00;5.80;;;22.00;56.80;;;;;;5111644;28;20043;-80
2023/06/07 11:53:06;;;;;;;12.43;6.45;;;22.00;57.60;;;;;;5096945;28;20036;-80
2023/06/07 11:55:32;;;;;;;13.45;6.15;;;22.10;57.50;;;;;;5096586;28;20040;-80
2023/06/07 11:58:02;;;;;;;10.30;5.32;;;22.30;56.90;;;;;;5096476;28;20122;-80
2023/06/07 12:00:31;;;;;;;11.43;6.57;;;22.20;56.60;;;;;;5113634;28;20036;-81
2023/06/07 12:02:58;;;;;;;17.50;6.53;;;22.10;56.40;;;;;;5096424;28;20035;-81
2023/06/07 12:05:30;;;;;;;13.35;5.38;;;22.20;56.90;;;;;;5096594;28;20452;-82
2023/06/07 12:08:16;;;;;;;10.60;5.75;;;22.30;56.50;;;;;;5096742;28;20046;-81
2023/06/07 12:10:51;;;;;;;14.18;5.40;;;22.40;56.40;;;;;;5096592;28;20403;-80
2023/06/07 12:13:19;;;;;;;11.15;5.72;;;22.30;55.40;;;;;;5113446;28;20043;-81
2023/06/07 12:15:57;;;;;;;13.13;6.03;;;22.40;55.90;;;;;;5096150;28;20062;-79
2023/06/07 12:18:28;;;;;;;10.45;6.50;;;22.40;55.90;;;;;;5096188;28;20042;-80
2023/06/07 12:21:06;;;;;;;10.55;5.90;;;22.40;55.50;;;;;;5113048;28;20039;-80
2023/06/07 12:23:32;;;;;;;11.18;6.20;;;22.50;55.50;;;;;;5096338;28;20476;-79
2023/06/07 12:26:12;;;;;;;8.82;5.78;;;22.50;54.80;;;;;;5079207;28;20123;-79
2023/06/07 12:28:42;;;;;;;9.63;6.28;;;22.50;55.60;;;;;;5097494;28;20035;-80
2023/06/07 12:31:16;;;;;;;13.52;5.90;;;22.50;54.10;;;;;;5079475;28;20043;-80
2023/06/07 12:33:53;;;;;;;11.07;5.72;;;22.50;53.60;;;;;;5096255;28;20046;-79
2023/06/07 12:36:19;;;;;;;14.80;4.95;;;22.40;53.90;;;;;;5112948;28;20080;-80
2023/06/07 12:38:45;;;;;;;14.00;6.45;;;22.40;54.80;;;;;;5079395;28;20047;-79
2023/06/07 12:41:10;;;;;;;17.35;6.07;;;22.40;55.20;;;;;;5078889;28;20399;-79
2023/06/07 12:43:36;;;;;;;11.60;5.43;;;22.40;55.70;;;;;;5079394;28;20036;-80